createdAt,value
2019-06-26T00:02:12.847Z,8.57
2019-06-26T00:04:45.286Z,7.80
2019-06-26T00:07:17.582Z,7.73
2019-06-26T00:09:51.101Z,7.80
2019-06-26T00:12:23.181Z,7.77
2019-06-26T00:14:55.499Z,8.17
2019-06-26T00:17:28.332Z,9.20
2019-06-26T00:20:00.586Z,7.77
2019-06-26T00:22:33.512Z,7.80
2019-06-26T00:25:06.519Z,7.47
2019-06-26T00:27:37.890Z,7.67
2019-06-26T00:30:11.058Z,7.90
2019-06-26T00:32:44.082Z,9.40
2019-06-26T00:35:17.393Z,7.40
2019-06-26T00:37:49.352Z,7.90
2019-06-26T00:40:21.578Z,7.53
2019-06-26T00:42:54.101Z,8.40
2019-06-26T00:45:26.951Z,7.67
2019-06-26T00:47:59.141Z,7.97
2019-06-26T00:50:31.576Z,7.93
2019-06-26T00:53:03.226Z,8.60
2019-06-26T00:55:35.446Z,8.40
2019-06-26T00:58:07.639Z,8.30
2019-06-26T01:00:43.897Z,7.90
2019-06-26T01:03:16.771Z,7.80
2019-06-26T01:05:49.608Z,8.07
2019-06-26T01:08:21.706Z,8.30
2019-06-26T01:10:53.966Z,8.67
2019-06-26T01:13:26.631Z,7.77
2019-06-26T01:15:58.649Z,8.03
2019-06-26T01:18:30.696Z,7.80
2019-06-26T01:21:02.971Z,8.03
2019-06-26T01:23:34.830Z,8.00
2019-06-26T01:26:07.051Z,7.90
2019-06-26T01:28:39.161Z,8.03
2019-06-26T01:31:11.516Z,8.13
2019-06-26T01:33:43.122Z,7.60
2019-06-26T01:36:16.235Z,7.63
2019-06-26T01:38:48.456Z,7.77
2019-06-26T01:41:20.626Z,7.50
2019-06-26T01:43:53.436Z,6.57
2019-06-26T01:46:26.741Z,7.30
2019-06-26T01:48:58.983Z,7.23
2019-06-26T01:51:31.414Z,8.20
2019-06-26T01:54:04.256Z,7.40
2019-06-26T01:56:37.542Z,7.67
2019-06-26T01:59:09.398Z,7.20
2019-06-26T02:01:42.131Z,6.60
2019-06-26T02:04:15.664Z,7.00
2019-06-26T02:06:48.969Z,7.20
2019-06-26T02:09:21.989Z,7.57
2019-06-26T02:11:54.141Z,7.80
2019-06-26T02:14:31.577Z,7.30
2019-06-26T02:17:01.306Z,8.97
2019-06-26T02:19:34.601Z,7.20
2019-06-26T02:22:07.156Z,7.57
2019-06-26T02:24:39.645Z,7.37
2019-06-26T02:27:11.846Z,7.33
2019-06-26T02:29:45.161Z,8.57
2019-06-26T02:32:16.893Z,7.37
2019-06-26T02:34:49.318Z,7.07
2019-06-26T02:37:21.357Z,6.40
2019-06-26T02:39:53.835Z,6.23
2019-06-26T02:42:26.797Z,7.07
2019-06-26T02:44:59.326Z,7.90
2019-06-26T02:47:31.275Z,7.40
2019-06-26T02:50:03.529Z,6.50
2019-06-26T02:52:36.284Z,6.53
2019-06-26T02:55:08.727Z,6.70
2019-06-26T02:57:40.245Z,7.03
2019-06-26T03:00:12.132Z,7.03
2019-06-26T03:02:44.937Z,7.37
2019-06-26T03:05:17.995Z,7.23
2019-06-26T03:07:50.980Z,7.40
2019-06-26T03:10:23.919Z,7.03
2019-06-26T03:12:56.330Z,7.87
2019-06-26T03:15:29.491Z,7.20
2019-06-26T03:18:02.161Z,7.20
2019-06-26T03:20:36.386Z,6.80
2019-06-26T03:23:08.209Z,6.73
2019-06-26T03:25:40.540Z,7.33
2019-06-26T03:28:12.845Z,7.07
2019-06-26T03:30:45.807Z,7.40
2019-06-26T03:33:18.053Z,7.20
2019-06-26T03:35:50.891Z,6.80
2019-06-26T03:38:23.506Z,8.30
2019-06-26T03:40:56.367Z,8.33
2019-06-26T03:43:28.091Z,7.40
2019-06-26T03:45:59.978Z,8.20
2019-06-26T03:48:32.485Z,9.87
2019-06-26T03:51:05.191Z,7.80
2019-06-26T03:53:37.389Z,9.17
2019-06-26T03:56:10.491Z,7.63
2019-06-26T03:58:42.786Z,7.90
2019-06-26T04:01:15.430Z,7.60
2019-06-26T04:03:47.646Z,8.13
2019-06-26T04:06:19.869Z,8.10
2019-06-26T04:08:52.390Z,7.90
2019-06-26T04:11:25.431Z,7.77
2019-06-26T04:13:57.891Z,7.30
2019-06-26T04:16:30.485Z,8.57
2019-06-26T04:19:02.670Z,8.53
2019-06-26T04:21:35.506Z,9.90
2019-06-26T04:24:07.935Z,8.87
2019-06-26T04:26:40.072Z,8.37
2019-06-26T04:29:12.965Z,7.90
2019-06-26T04:31:45.065Z,8.23
2019-06-26T04:34:17.511Z,7.80
2019-06-26T04:36:50.973Z,7.83
2019-06-26T04:39:23.779Z,8.03
2019-06-26T04:41:55.871Z,9.70
2019-06-26T04:44:29.351Z,8.90
2019-06-26T04:47:01.781Z,8.10
2019-06-26T04:49:33.760Z,8.43
2019-06-26T04:52:05.951Z,7.87
2019-06-26T04:54:38.351Z,7.67
2019-06-26T04:57:10.557Z,9.20
2019-06-26T04:59:43.386Z,9.33
2019-06-26T05:02:14.983Z,11.10
2019-06-26T05:04:47.787Z,8.80
2019-06-26T05:07:20.382Z,10.20
2019-06-26T05:09:52.249Z,10.47
2019-06-26T05:12:24.740Z,7.30
2019-06-26T05:14:57.286Z,7.73
2019-06-26T05:17:29.722Z,9.50
2019-06-26T05:20:02.441Z,12.10
2019-06-26T05:22:35.326Z,9.00
2019-06-26T05:25:07.516Z,9.60
2019-06-26T05:27:38.846Z,8.07
2019-06-26T05:30:11.922Z,8.50
2019-06-26T05:32:43.851Z,8.90
2019-06-26T05:35:16.647Z,8.93
2019-06-26T05:37:48.507Z,9.00
2019-06-26T05:40:21.356Z,9.50
2019-06-26T05:42:53.605Z,10.20
2019-06-26T05:45:25.887Z,10.10
2019-06-26T05:47:57.731Z,9.70
2019-06-26T05:50:30.052Z,9.60
2019-06-26T05:53:02.217Z,9.83
2019-06-26T05:55:34.686Z,8.67
2019-06-26T05:58:07.916Z,9.80
2019-06-26T06:00:40.811Z,7.60
2019-06-26T06:03:12.926Z,7.27
2019-06-26T06:05:45.375Z,7.83
2019-06-26T06:08:17.086Z,6.93
2019-06-26T06:10:49.517Z,7.53
2019-06-26T06:13:22.845Z,6.63
2019-06-26T06:15:56.081Z,7.97
2019-06-26T06:18:27.621Z,7.33
2019-06-26T06:21:00.071Z,7.13
2019-06-26T06:23:32.566Z,7.33
2019-06-26T06:26:04.639Z,8.13
2019-06-26T06:28:36.561Z,7.20
2019-06-26T06:31:09.217Z,7.00
2019-06-26T06:33:40.861Z,12.20
2019-06-26T06:36:12.865Z,7.17
2019-06-26T06:38:45.030Z,6.60
2019-06-26T06:41:17.486Z,6.67
2019-06-26T06:43:50.123Z,7.90
2019-06-26T06:46:22.313Z,8.00
2019-06-26T06:48:54.726Z,7.10
2019-06-26T06:51:26.637Z,7.17
2019-06-26T06:53:59.047Z,6.70
2019-06-26T06:56:31.941Z,7.57
2019-06-26T06:59:04.781Z,7.67
2019-06-26T07:01:37.511Z,6.90
2019-06-26T07:04:09.965Z,6.50
2019-06-26T07:06:43.004Z,9.60
2019-06-26T07:09:15.303Z,6.70
2019-06-26T07:11:48.546Z,5.93
2019-06-26T07:14:21.315Z,7.27
2019-06-26T07:16:53.852Z,6.70
2019-06-26T07:19:25.900Z,6.83
2019-06-26T07:21:58.241Z,7.17
2019-06-26T07:24:30.311Z,8.67
2019-06-26T07:27:03.062Z,7.30
2019-06-26T07:29:35.481Z,6.50
2019-06-26T07:32:07.590Z,6.97
2019-06-26T07:34:40.891Z,7.07
2019-06-26T07:37:13.746Z,10.07
2019-06-26T07:39:44.886Z,12.73
2019-06-26T07:42:17.330Z,13.07
2019-06-26T07:44:49.201Z,11.97
2019-06-26T07:47:25.148Z,12.53
2019-06-26T07:49:55.956Z,12.03
2019-06-26T07:52:28.392Z,12.13
2019-06-26T07:55:00.430Z,12.80
2019-06-26T07:57:32.782Z,13.43
2019-06-26T08:00:04.596Z,12.90
2019-06-26T08:02:37.257Z,15.10
2019-06-26T08:05:10.318Z,12.80
2019-06-26T08:07:42.008Z,12.80
2019-06-26T08:10:15.127Z,12.43
2019-06-26T08:12:47.919Z,13.87
2019-06-26T08:15:21.888Z,13.10
2019-06-26T08:18:00.400Z,13.30
2019-06-26T08:20:28.880Z,13.90
2019-06-26T08:23:01.896Z,13.00
2019-06-26T08:25:33.745Z,21.40
2019-06-26T08:28:05.792Z,13.07
2019-06-26T08:30:39.594Z,12.67
2019-06-26T08:33:12.467Z,13.50
2019-06-26T08:35:44.366Z,13.37
2019-06-26T08:38:17.512Z,14.90
2019-06-26T08:40:50.614Z,14.40
2019-06-26T08:43:24.306Z,13.63
2019-06-26T08:45:56.357Z,13.33
2019-06-26T08:48:39.762Z,14.07
2019-06-26T08:51:02.889Z,12.83
2019-06-26T08:53:34.857Z,12.57
2019-06-26T08:56:07.012Z,13.40
2019-06-26T08:58:39.787Z,14.73
2019-06-26T09:01:12.586Z,13.50
2019-06-26T09:03:44.230Z,13.17
2019-06-26T09:06:16.977Z,14.03
2019-06-26T09:08:50.327Z,13.83
2019-06-26T09:11:22.471Z,16.47
2019-06-26T09:13:55.341Z,14.90
2019-06-26T09:16:27.551Z,14.73
2019-06-26T09:18:59.699Z,14.60
2019-06-26T09:21:32.078Z,16.53
2019-06-26T09:24:04.474Z,13.97
2019-06-26T09:26:36.513Z,14.33
2019-06-26T09:29:08.878Z,15.87
2019-06-26T09:31:40.197Z,15.60
2019-06-26T09:34:12.742Z,14.40
2019-06-26T09:36:44.416Z,14.80
2019-06-26T09:39:17.142Z,14.40
2019-06-26T09:41:49.503Z,13.70
2019-06-26T09:44:21.562Z,14.43
2019-06-26T09:46:54.090Z,12.30
2019-06-26T09:49:26.195Z,15.60
2019-06-26T09:51:59.260Z,16.70
2019-06-26T09:54:31.460Z,19.13
2019-06-26T09:57:04.232Z,14.07
2019-06-26T09:59:36.993Z,17.40
2019-06-26T10:02:09.566Z,12.50
2019-06-26T10:04:41.712Z,14.00
2019-06-26T10:07:14.467Z,14.17
2019-06-26T10:09:46.755Z,13.57
2019-06-26T10:12:19.733Z,13.07
2019-06-26T10:14:52.135Z,14.10
2019-06-26T10:17:24.400Z,12.67
2019-06-26T10:19:57.265Z,12.70
2019-06-26T10:22:29.910Z,13.50
2019-06-26T10:25:02.542Z,16.37
2019-06-26T10:27:35.450Z,13.90
2019-06-26T10:30:08.558Z,14.87
2019-06-26T10:32:41.791Z,13.13
2019-06-26T10:35:14.357Z,13.90
2019-06-26T10:37:46.420Z,15.20
2019-06-26T10:40:18.367Z,14.40
2019-06-26T10:42:51.101Z,13.80
2019-06-26T10:45:24.706Z,14.80
2019-06-26T10:47:56.990Z,12.63
2019-06-26T10:50:29.710Z,47.63
2019-06-26T10:53:02.448Z,13.20
2019-06-26T10:55:35.246Z,13.00
2019-06-26T10:58:07.911Z,13.20
2019-06-26T11:00:40.219Z,13.93
2019-06-26T11:03:12.961Z,13.37
2019-06-26T11:05:45.436Z,13.57
2019-06-26T11:08:17.836Z,12.20
2019-06-26T11:10:50.670Z,16.93
2019-06-26T11:13:24.296Z,15.27
2019-06-26T11:15:56.851Z,18.97
2019-06-26T11:18:28.910Z,14.63
2019-06-26T11:21:01.496Z,15.30
2019-06-26T11:23:34.017Z,14.80
2019-06-26T11:26:06.348Z,14.20
2019-06-26T11:28:38.720Z,15.37
2019-06-26T11:31:11.970Z,15.90
2019-06-26T11:33:44.235Z,16.27
2019-06-26T11:36:16.780Z,15.83
2019-06-26T11:38:49.325Z,18.10
2019-06-26T11:41:21.728Z,17.20
2019-06-26T11:43:53.939Z,17.10
2019-06-26T11:46:26.055Z,20.17
2019-06-26T11:48:58.610Z,16.60
2019-06-26T11:51:31.651Z,16.80
2019-06-26T11:54:04.039Z,16.43
2019-06-26T11:56:36.389Z,17.20
2019-06-26T11:59:08.614Z,16.77
2019-06-26T12:01:41.043Z,17.67
2019-06-26T12:04:14.139Z,15.00
2019-06-26T12:06:46.635Z,16.80
2019-06-26T12:09:19.272Z,17.17
2019-06-26T12:11:52.275Z,16.57
2019-06-26T12:14:24.865Z,18.67
2019-06-26T12:16:57.935Z,17.60
2019-06-26T12:19:30.869Z,15.80
2019-06-26T12:22:03.402Z,16.80
2019-06-26T12:24:35.819Z,17.40
2019-06-26T12:27:07.939Z,17.00
2019-06-26T12:29:39.721Z,17.87
2019-06-26T12:32:12.137Z,17.83
2019-06-26T12:34:45.396Z,15.70
2019-06-26T12:37:17.534Z,16.03
2019-06-26T12:39:50.547Z,16.40
2019-06-26T12:42:22.198Z,15.93
2019-06-26T12:44:53.734Z,18.27
2019-06-26T12:47:26.319Z,20.57
2019-06-26T12:49:58.415Z,17.20
2019-06-26T12:52:30.457Z,17.30
2019-06-26T12:55:02.539Z,16.77
2019-06-26T12:57:35.605Z,17.70
2019-06-26T13:00:08.090Z,17.17
2019-06-26T13:02:40.053Z,19.07
2019-06-26T13:05:12.826Z,18.03
2019-06-26T13:07:45.404Z,18.37
2019-06-26T13:10:18.514Z,17.57
2019-06-26T13:12:50.614Z,16.03
2019-06-26T13:15:23.135Z,15.83
2019-06-26T13:17:56.101Z,16.13
2019-06-26T13:20:28.788Z,15.50
2019-06-26T13:23:01.393Z,14.73
2019-06-26T13:25:34.200Z,14.30
2019-06-26T13:28:06.309Z,15.80
2019-06-26T13:30:41.019Z,16.00
2019-06-26T13:33:13.713Z,15.13
2019-06-26T13:35:46.365Z,14.40
2019-06-26T13:38:20.194Z,13.03
2019-06-26T13:40:53.159Z,12.70
2019-06-26T13:43:25.324Z,14.43
2019-06-26T13:45:58.840Z,13.80
2019-06-26T13:48:31.014Z,14.10
2019-06-26T13:51:09.421Z,12.83
2019-06-26T13:53:37.522Z,13.20
2019-06-26T13:56:10.780Z,13.20
2019-06-26T13:58:43.650Z,14.50
2019-06-26T14:01:15.700Z,12.37
2019-06-26T14:03:48.075Z,13.07
2019-06-26T14:06:19.812Z,12.73
2019-06-26T14:08:51.989Z,13.70
2019-06-26T14:11:23.933Z,13.90
2019-06-26T14:13:55.815Z,13.73
2019-06-26T14:16:29.944Z,11.90
2019-06-26T14:19:02.468Z,12.47
2019-06-26T14:21:34.984Z,11.40
2019-06-26T14:24:07.563Z,12.20
2019-06-26T14:26:40.156Z,12.17
2019-06-26T14:29:20.937Z,12.97
2019-06-26T14:31:45.903Z,12.93
2019-06-26T14:34:19.167Z,12.10
2019-06-26T14:36:51.213Z,12.57
2019-06-26T14:39:23.964Z,12.20
2019-06-26T14:41:56.189Z,13.27
2019-06-26T14:44:29.657Z,11.50
2019-06-26T14:47:03.023Z,10.43
2019-06-26T14:49:34.876Z,11.73
2019-06-26T14:52:06.188Z,10.40
2019-06-26T14:54:38.260Z,10.00
2019-06-26T14:57:11.749Z,10.13
2019-06-26T14:59:43.400Z,12.13
2019-06-26T15:02:15.888Z,12.67
2019-06-26T15:04:49.231Z,10.40
2019-06-26T15:07:21.970Z,11.47
2019-06-26T15:09:53.736Z,10.80
2019-06-26T15:12:27.451Z,10.73
2019-06-26T15:15:00.181Z,9.70
2019-06-26T15:17:33.010Z,9.70
2019-06-26T15:20:06.051Z,10.33
2019-06-26T15:22:38.505Z,9.70
2019-06-26T15:25:10.950Z,10.60
2019-06-26T15:27:43.555Z,9.80
2019-06-26T15:30:15.395Z,10.63
2019-06-26T15:32:47.922Z,10.13
2019-06-26T15:35:20.083Z,9.50
2019-06-26T15:37:52.846Z,9.33
2019-06-26T15:40:25.453Z,9.10
2019-06-26T15:42:57.392Z,9.07
2019-06-26T15:45:30.356Z,9.20
2019-06-26T15:48:02.915Z,9.00
2019-06-26T15:50:35.016Z,9.57
2019-06-26T15:53:07.785Z,8.93
2019-06-26T15:55:40.882Z,8.17
2019-06-26T15:58:13.280Z,9.13
2019-06-26T16:00:45.550Z,11.73
2019-06-26T16:03:18.090Z,10.43
2019-06-26T16:05:49.369Z,11.73
2019-06-26T16:08:22.470Z,11.70
2019-06-26T16:10:55.319Z,10.60
2019-06-26T16:13:27.199Z,10.03
2019-06-26T16:15:59.702Z,7.90
2019-06-26T16:18:36.708Z,9.70
2019-06-26T16:21:08.213Z,9.90
2019-06-26T16:23:41.263Z,9.67
2019-06-26T16:26:12.697Z,9.40
2019-06-26T16:28:45.138Z,10.33
2019-06-26T16:31:17.787Z,7.60
2019-06-26T16:33:50.458Z,8.63
2019-06-26T16:36:23.659Z,9.80
2019-06-26T16:38:56.459Z,8.40
2019-06-26T16:41:29.064Z,9.20
2019-06-26T16:44:01.468Z,8.50
2019-06-26T16:46:34.535Z,10.30
2019-06-26T16:49:06.778Z,8.00
2019-06-26T16:51:39.178Z,9.20
2019-06-26T16:54:12.218Z,8.67
2019-06-26T16:56:45.018Z,6.30
2019-06-26T16:59:17.033Z,7.33
2019-06-26T17:01:49.997Z,7.20
2019-06-26T17:04:22.478Z,8.00
2019-06-26T17:06:55.137Z,7.90
2019-06-26T17:09:27.294Z,7.80
2019-06-26T17:12:00.239Z,8.70
2019-06-26T17:14:33.318Z,8.23
2019-06-26T17:17:05.222Z,7.40
2019-06-26T17:19:37.458Z,7.67
2019-06-26T17:22:10.383Z,7.53
2019-06-26T17:24:42.733Z,8.80
2019-06-26T17:27:15.598Z,6.97
2019-06-26T17:29:48.573Z,7.30
2019-06-26T17:32:19.989Z,7.43
2019-06-26T17:34:52.669Z,8.43
2019-06-26T17:37:25.077Z,7.80
2019-06-26T17:39:56.793Z,9.47
2019-06-26T17:42:29.618Z,10.60
2019-06-26T17:45:01.679Z,8.67
2019-06-26T17:47:34.659Z,8.00
2019-06-26T17:50:07.886Z,9.30
2019-06-26T17:52:40.460Z,10.83
2019-06-26T17:55:13.104Z,8.70
2019-06-26T17:57:47.576Z,11.67
2019-06-26T18:00:20.401Z,11.53
2019-06-26T18:02:53.578Z,15.80
2019-06-26T18:05:26.178Z,12.60
2019-06-26T18:07:58.022Z,14.00
2019-06-26T18:10:30.538Z,14.70
2019-06-26T18:13:03.365Z,15.87
2019-06-26T18:15:35.687Z,15.20
2019-06-26T18:18:08.513Z,14.50
2019-06-26T18:20:41.328Z,15.03
2019-06-26T18:23:14.058Z,13.90
2019-06-26T18:25:53.818Z,14.50
2019-06-26T18:28:20.642Z,14.87
2019-06-26T18:30:53.698Z,14.80
2019-06-26T18:33:26.782Z,15.53
2019-06-26T18:35:58.683Z,16.03
2019-06-26T18:38:30.669Z,14.50
2019-06-26T18:41:02.768Z,16.77
2019-06-26T18:43:35.473Z,15.60
2019-06-26T18:46:08.144Z,15.07
2019-06-26T18:48:40.553Z,14.40
2019-06-26T18:51:13.516Z,15.10
2019-06-26T18:53:53.513Z,16.47
2019-06-26T18:56:19.599Z,15.50
2019-06-26T18:58:52.307Z,15.93
2019-06-26T19:01:24.569Z,14.93
2019-06-26T19:03:57.021Z,16.53
2019-06-26T19:06:30.510Z,14.80
2019-06-26T19:09:02.899Z,16.10
2019-06-26T19:11:35.335Z,14.43
2019-06-26T19:14:08.033Z,13.70
2019-06-26T19:16:40.129Z,13.80
2019-06-26T19:19:12.489Z,13.43
2019-06-26T19:21:44.202Z,12.43
2019-06-26T19:24:16.620Z,13.67
2019-06-26T19:26:49.407Z,11.30
2019-06-26T19:29:21.180Z,11.20
2019-06-26T19:31:54.148Z,11.37
2019-06-26T19:34:26.195Z,12.17
2019-06-26T19:36:58.479Z,11.07
2019-06-26T19:39:31.228Z,10.43
2019-06-26T19:42:03.419Z,10.70
2019-06-26T19:44:36.059Z,10.57
2019-06-26T19:47:08.929Z,12.30
2019-06-26T19:49:41.562Z,10.60
2019-06-26T19:52:13.989Z,10.90
2019-06-26T19:54:46.458Z,10.40
2019-06-26T19:57:18.256Z,10.00
2019-06-26T19:59:50.318Z,9.80
2019-06-26T20:02:23.403Z,9.53
2019-06-26T20:04:56.075Z,11.00
2019-06-26T20:07:28.515Z,10.30
2019-06-26T20:10:01.836Z,11.17
2019-06-26T20:12:33.919Z,11.90
2019-06-26T20:15:06.953Z,11.63
2019-06-26T20:17:39.637Z,10.73
2019-06-26T20:20:13.030Z,10.80
2019-06-26T20:22:45.329Z,12.80
2019-06-26T20:25:17.438Z,11.90
2019-06-26T20:27:56.682Z,12.50
2019-06-26T20:30:26.830Z,12.57
2019-06-26T20:32:58.533Z,13.13
2019-06-26T20:35:31.942Z,12.33
2019-06-26T20:38:04.603Z,17.53
2019-06-26T20:40:37.018Z,13.93
2019-06-26T20:43:09.888Z,15.50
2019-06-26T20:45:42.332Z,13.30
2019-06-26T20:48:14.509Z,13.60
2019-06-26T20:50:47.488Z,13.40
2019-06-26T20:53:19.795Z,12.80
2019-06-26T20:55:51.392Z,14.00
2019-06-26T20:58:24.979Z,14.70
2019-06-26T21:00:57.274Z,13.33
2019-06-26T21:03:30.255Z,14.53
2019-06-26T21:06:02.968Z,14.13
2019-06-26T21:08:36.286Z,14.10
2019-06-26T21:11:08.884Z,14.37
2019-06-26T21:13:41.530Z,12.90
2019-06-26T21:16:14.624Z,14.60
2019-06-26T21:18:47.154Z,14.20
2019-06-26T21:21:19.584Z,13.20
2019-06-26T21:23:52.594Z,12.63
2019-06-26T21:26:25.967Z,13.90
2019-06-26T21:29:00.865Z,13.43
2019-06-26T21:31:33.362Z,14.27
2019-06-26T21:34:06.174Z,12.80
2019-06-26T21:36:37.990Z,12.70
2019-06-26T21:39:11.423Z,14.90
2019-06-26T21:41:44.708Z,14.80
2019-06-26T21:44:17.253Z,14.43
2019-06-26T21:46:49.565Z,14.70
2019-06-26T21:49:22.519Z,14.20
2019-06-26T21:51:55.554Z,14.30
2019-06-26T21:54:27.198Z,14.73
2019-06-26T21:57:00.175Z,15.30
2019-06-26T21:59:33.048Z,14.53
2019-06-26T22:02:05.663Z,14.57
2019-06-26T22:04:37.783Z,14.23
2019-06-26T22:07:11.499Z,15.20
2019-06-26T22:09:44.313Z,14.73
2019-06-26T22:12:16.224Z,14.40
2019-06-26T22:14:49.005Z,14.50
2019-06-26T22:17:21.779Z,14.27
2019-06-26T22:19:54.088Z,13.87
2019-06-26T22:22:26.458Z,14.63
2019-06-26T22:24:59.238Z,13.97
2019-06-26T22:27:30.563Z,13.37
2019-06-26T22:30:03.933Z,13.57
2019-06-26T22:32:37.687Z,13.23
2019-06-26T22:35:10.574Z,14.40
2019-06-26T22:37:43.023Z,14.00
2019-06-26T22:40:16.093Z,13.70
2019-06-26T22:42:48.878Z,13.80
2019-06-26T22:45:21.928Z,14.60
2019-06-26T22:47:54.198Z,13.90
2019-06-26T22:50:26.581Z,13.90
2019-06-26T22:52:59.400Z,13.30
2019-06-26T22:55:33.250Z,13.53
2019-06-26T22:58:06.188Z,15.83
2019-06-26T23:00:38.855Z,15.07
2019-06-26T23:03:11.589Z,14.33
2019-06-26T23:05:43.905Z,15.40
2019-06-26T23:08:16.101Z,13.70
2019-06-26T23:10:48.975Z,13.83
2019-06-26T23:13:20.575Z,14.60
2019-06-26T23:15:53.634Z,13.10
2019-06-26T23:18:26.689Z,14.67
2019-06-26T23:20:58.909Z,14.27
2019-06-26T23:23:31.310Z,13.80
2019-06-26T23:26:03.265Z,13.77
2019-06-26T23:28:35.739Z,14.20
2019-06-26T23:31:08.055Z,13.10
2019-06-26T23:33:40.394Z,13.80
2019-06-26T23:36:13.224Z,13.60
2019-06-26T23:38:46.314Z,14.07
2019-06-26T23:41:18.624Z,14.17
2019-06-26T23:43:51.264Z,13.20
2019-06-26T23:46:24.284Z,13.43
2019-06-26T23:48:56.204Z,13.40
2019-06-26T23:51:28.776Z,13.97
2019-06-26T23:54:02.019Z,14.50
2019-06-26T23:56:40.289Z,13.73
2019-06-26T23:59:09.984Z,13.93
